Crow, Oregon
Current Conditions -  °F | °C
As of 5:19 PM on Friday 28 Nov 2014 (Local Time) from KEUG Reporting Station
Light Rain Light Rain  
Wind Chill: 54°   Ceiling: 5500
Heat Index: 54°   Visibility: 10mi
Dew Point: 51°   Wind: 15mph
Humidity: 90%   Direction: 190°S
Pressure: 29.58"   Gusts: NA
Location:  44.0685°N, 123.082°W
Report Text: KEUG 290119Z 19013KT 10SM -RA FEW025 SCT041 OVC055 12/11 A2958 RMK AO2 P0003 T01220106
Loading
Personal Weather Stations






























Interactive Weather Map New forecast layout! Learn more

10-Day Weather Forecast

Advertisements
Track Severe Weather on mobile